Rechercher aéroport 
image banner adimage banner adimage banner ad
image banner ad

14PA - Dimascio Field

Situé à Pottstown, United States

ICAO - 14PA, IATA -

Données fournies par Airmate  

Information générale

Coordonnées: N40°17'27" W75°39'33"
Élévation : 350 feet MSL.
Variation magnétique : -11° East
Voir autres Aéroports à Pennsylvania

Données opérationnelles

Special qualification required
Heure actuelle UTC:
Heure actuelle locale:
Météo à : KPTW - Heritage Field ( 10 km )
METAR: KPTW 150554Z AUTO 00000KT 10SM OVC060 17/16 A2982 RMK AO2 SLP093 60002 T01720161 10222 20172 53006
Voir NOTAMs / SUP AIP / TFR affectant cet aéroport [VIEW]
Fréquences de communication: [VIEW]

Pistes:

Identifiant RWYQFULongueur (ft)Largeur (ft)SurfaceLDA (ft)
N1300100GRASS
S1300100GRASS

Coordonnées de l'aéroport

Adresse: Pottstown United States

Vue satellite de 14PA